首页
METAR-TAF:

METAR-TAF

机场 :

埃拉特, 以色列

纬度: 29-43-25N, 经度: 35-00-41E, 海拔: 88米

当前天气观测

该预报发布于20分钟前的08:50 UTC
风速8节,风向,在北转西北东转东北之间变化
温度 29°C
湿度 29%
气压 1012 hPa
能见度10公里或以上
1500米以下无云,无积雨云

METAR: LLER 300850Z 01008KT 330V070 CAVOK 29/09 Q1012

时间: 12:10 (09:10 UTC)

预报

该预报发布于4小时和8分钟前的05:02 UTC
预报有效从30日的 06点(UTC)到 31日的 06点(UTC)
风速10节,风向
能见度10公里或以上
1500米以下无云,无积雨云
成为
从 30日的 07点(UTC)到 30日的 09点(UTC)
风速16节,风向北转东北
成为
从 30日的 13点(UTC)到 30日的 15点(UTC)
风速16节,风向西北
成为
从 30日的 19点(UTC)到 30日的 21点(UTC)
风速10节,风向

TAF: LLER 300502Z 3006/3106 01010KT CAVOK BECMG 3007/3009 02016KT BECMG 3013/3015 32016KT BECMG 3019/3021 36010KT TX35/3013Z TN20/3103Z

超过4000个机场的气象观测和天气预报(METAR&TAF报告)。

可查询的气象台以黄色和红色小点在地图上表示。

将鼠标移到小点上方,可查看气象台名称。

然后点击查看天气观测和预报。

如需切换地图:点击带黑十字的绿色按钮放大地图;点击带横线的绿色按钮缩小地图;或者点击绿色箭头查看邻近地区的地图。


METAR-TAF: